createdAt,value
2018-12-27T00:00:10.595Z,99738.34
2018-12-27T00:02:18.376Z,99737.92
2018-12-27T00:04:25.619Z,99735.42
2018-12-27T00:06:34.717Z,99734.94
2018-12-27T00:08:42.109Z,99739.47
2018-12-27T00:10:49.259Z,99740.96
2018-12-27T00:12:56.404Z,99742.57
2018-12-27T00:15:03.588Z,99745.96
2018-12-27T00:17:10.733Z,99737.62
2018-12-27T00:19:17.846Z,99729.79
2018-12-27T00:21:25.166Z,99730.92
2018-12-27T00:23:32.248Z,99735.85
2018-12-27T00:25:39.585Z,99728.14
2018-12-27T00:27:46.578Z,99713.52
2018-12-27T00:29:53.610Z,99715.09
2018-12-27T00:32:01.098Z,99715.83
2018-12-27T00:34:08.797Z,99715.21
2018-12-27T00:36:16.447Z,99705.73
2018-12-27T00:38:24.221Z,99706.86
2018-12-27T00:40:31.254Z,99704.47
2018-12-27T00:42:38.826Z,99697.69
2018-12-27T00:44:46.504Z,99702.70
2018-12-27T00:46:53.772Z,99699.45
2018-12-27T00:49:01.262Z,99699.03
2018-12-27T00:51:08.554Z,99699.03
2018-12-27T00:53:16.175Z,99698.80
2018-12-27T00:55:23.623Z,99697.84
2018-12-27T00:57:30.801Z,99707.23
2018-12-27T00:59:38.570Z,99703.47
2018-12-27T01:01:46.801Z,99705.21
2018-12-27T01:03:54.065Z,99707.06
2018-12-27T01:06:01.301Z,99703.43
2018-12-27T01:08:09.097Z,99711.97
2018-12-27T01:10:16.251Z,99715.61
2018-12-27T01:12:23.740Z,99717.78
2018-12-27T01:14:31.455Z,99706.50
2018-12-27T01:16:38.703Z,99707.30
2018-12-27T01:18:45.817Z,99712.06
2018-12-27T01:20:53.735Z,99718.77
2018-12-27T01:23:01.554Z,99710.97
2018-12-27T01:25:09.200Z,99710.47
2018-12-27T01:27:18.151Z,99705.88
2018-12-27T01:29:25.919Z,99687.27
2018-12-27T01:31:36.028Z,99689.26
2018-12-27T01:33:45.233Z,99685.59
2018-12-27T01:35:52.632Z,99679.91
2018-12-27T01:37:59.844Z,99669.48
2018-12-27T01:40:07.262Z,99663.98
2018-12-27T01:42:15.096Z,99659.48
2018-12-27T01:44:26.405Z,99644.23
2018-12-27T01:46:33.734Z,99637.42
2018-12-27T01:48:40.995Z,99644.80
2018-12-27T01:50:48.492Z,99639.91
2018-12-27T01:52:55.688Z,99627.80
2018-12-27T01:55:03.401Z,99640.59
2018-12-27T01:57:10.646Z,99649.66
2018-12-27T01:59:17.811Z,99650.49
2018-12-27T02:01:25.174Z,99657.08
2018-12-27T02:03:32.830Z,99652.91
2018-12-27T02:05:40.565Z,99655.73
2018-12-27T02:07:47.726Z,99646.55
2018-12-27T02:09:55.205Z,99632.98
2018-12-27T02:12:04.052Z,99624.94
2018-12-27T02:14:11.498Z,99615.75
2018-12-27T02:16:18.865Z,99617.47
2018-12-27T02:18:26.576Z,99622.66
2018-12-27T02:20:33.994Z,99622.41
2018-12-27T02:22:41.230Z,99612.82
2018-12-27T02:24:48.453Z,99603.52
2018-12-27T02:26:56.298Z,99607.83
2018-12-27T02:29:03.599Z,99605.59
2018-12-27T02:31:11.797Z,99596.47
2018-12-27T02:33:19.301Z,99602.20
2018-12-27T02:35:26.668Z,99601.89
2018-12-27T02:37:34.127Z,99611.09
2018-12-27T02:39:41.435Z,99612.16
2018-12-27T02:41:48.736Z,99615.21
2018-12-27T02:43:55.980Z,99612.45
2018-12-27T02:46:03.290Z,99611.73
2018-12-27T02:48:10.798Z,99614.52
2018-12-27T02:50:18.718Z,99612.31
2018-12-27T02:52:27.215Z,99623.14
2018-12-27T02:54:34.325Z,99618.88
2018-12-27T02:56:41.716Z,99615.34
2018-12-27T02:58:49.149Z,99623.05
2018-12-27T03:00:56.448Z,99644.17
2018-12-27T03:03:05.288Z,99625.84
2018-12-27T03:05:13.126Z,99623.16
2018-12-27T03:07:20.171Z,99618.53
2018-12-27T03:09:27.681Z,99616.59
2018-12-27T03:11:35.126Z,99618.28
2018-12-27T03:13:42.197Z,99606.17
2018-12-27T03:15:49.464Z,99587.05
2018-12-27T03:17:56.417Z,99582.12
2018-12-27T03:20:03.540Z,99564.03
2018-12-27T03:22:12.383Z,99560.09
2018-12-27T03:24:19.725Z,99560.98
2018-12-27T03:26:27.116Z,99552.14
2018-12-27T03:28:34.914Z,99547.52
2018-12-27T03:30:41.857Z,99542.14
2018-12-27T03:32:49.281Z,99540.20
2018-12-27T03:34:57.222Z,99536.66
2018-12-27T03:37:07.595Z,99533.74
2018-12-27T03:39:14.814Z,99524.44
2018-12-27T03:41:22.029Z,99518.02
2018-12-27T03:43:29.287Z,99521.73
2018-12-27T03:45:38.108Z,99519.27
2018-12-27T03:47:45.818Z,99524.89
2018-12-27T03:49:52.754Z,99519.66
2018-12-27T03:52:00.222Z,99515.00
2018-12-27T03:54:08.553Z,99509.45
2018-12-27T03:56:16.832Z,99513.34
2018-12-27T03:58:24.551Z,99505.70
2018-12-27T04:00:32.932Z,99503.00
2018-12-27T04:02:40.836Z,99497.34
2018-12-27T04:04:48.425Z,99489.81
2018-12-27T04:06:57.066Z,99489.70
2018-12-27T04:09:04.833Z,99495.33
2018-12-27T04:11:11.917Z,99499.08
2018-12-27T04:13:20.004Z,99494.01
2018-12-27T04:15:27.359Z,99500.45
2018-12-27T04:17:34.602Z,99495.25
2018-12-27T04:19:42.150Z,99491.30
2018-12-27T04:21:49.262Z,99495.63
2018-12-27T04:23:57.076Z,99493.34
2018-12-27T04:26:04.955Z,99490.94
2018-12-27T04:28:13.773Z,99484.75
2018-12-27T04:30:20.879Z,99481.17
2018-12-27T04:32:28.675Z,99487.61
2018-12-27T04:34:37.834Z,99488.86
2018-12-27T04:36:46.390Z,99496.92
2018-12-27T04:38:53.853Z,99487.05
2018-12-27T04:41:01.285Z,99498.70
2018-12-27T04:43:11.247Z,99499.69
2018-12-27T04:45:18.349Z,99508.58
2018-12-27T04:47:26.321Z,99511.64
2018-12-27T04:49:33.751Z,99502.60
2018-12-27T04:51:41.032Z,99497.14
2018-12-27T04:56:01.969Z,99486.98
2018-12-27T04:58:09.265Z,99481.37
2018-12-27T05:00:16.615Z,99478.66
2018-12-27T05:02:23.646Z,99474.36
2018-12-27T05:04:30.895Z,99463.95
2018-12-27T05:06:39.072Z,99462.18
2018-12-27T05:08:46.584Z,99459.41
2018-12-27T05:10:53.799Z,99469.56
2018-12-27T05:13:01.402Z,99466.02
2018-12-27T05:15:08.888Z,99459.79
2018-12-27T05:17:16.255Z,99454.88
2018-12-27T05:19:23.566Z,99440.20
2018-12-27T05:21:31.136Z,99436.35
2018-12-27T05:23:38.632Z,99439.85
2018-12-27T05:25:45.888Z,99439.64
2018-12-27T05:27:54.106Z,99426.92
2018-12-27T05:30:01.429Z,99440.66
2018-12-27T05:32:08.908Z,99435.09
2018-12-27T05:34:15.958Z,99435.45
2018-12-27T05:36:23.526Z,99420.45
2018-12-27T05:38:30.643Z,99416.19
2018-12-27T05:40:38.107Z,99413.36
2018-12-27T05:42:45.421Z,99401.77
2018-12-27T05:44:52.723Z,99391.64
2018-12-27T05:47:00.044Z,99370.22
2018-12-27T05:49:08.212Z,99371.39
2018-12-27T05:51:15.601Z,99361.89
2018-12-27T05:53:23.007Z,99353.57
2018-12-27T05:55:34.313Z,99337.42
2018-12-27T05:57:38.659Z,99333.36
2018-12-27T05:59:46.135Z,99329.45
2018-12-27T06:01:52.899Z,99330.07
2018-12-27T06:04:00.253Z,99316.24
2018-12-27T06:06:07.416Z,99305.07
2018-12-27T06:08:14.553Z,99299.15
2018-12-27T06:10:21.458Z,99299.42
2018-12-27T06:12:29.661Z,99288.97
2018-12-27T06:14:36.428Z,99191.85
2018-12-27T06:16:43.537Z,99275.59
2018-12-27T06:18:51.190Z,99275.49
2018-12-27T06:20:58.571Z,99278.81
2018-12-27T06:23:05.774Z,99274.66
2018-12-27T06:25:13.006Z,99272.38
2018-12-27T06:27:20.312Z,99276.87
2018-12-27T06:29:27.427Z,99273.78
2018-12-27T06:31:34.637Z,99277.66
2018-12-27T06:33:41.966Z,99275.64
2018-12-27T06:35:49.226Z,99269.94
2018-12-27T06:37:56.162Z,99262.22
2018-12-27T06:40:03.700Z,99258.03
2018-12-27T06:42:10.891Z,99257.44
2018-12-27T06:44:18.291Z,99263.36
2018-12-27T06:46:25.553Z,99260.74
2018-12-27T06:48:32.649Z,99261.91
2018-12-27T06:50:39.911Z,99254.59
2018-12-27T06:52:47.005Z,99249.61
2018-12-27T06:54:54.146Z,99247.94
2018-12-27T06:57:01.222Z,99256.13
2018-12-27T06:59:08.594Z,99257.78
2018-12-27T07:01:15.809Z,99263.14
2018-12-27T07:03:22.912Z,99238.55
2018-12-27T07:05:30.078Z,99252.45
2018-12-27T07:07:37.153Z,99242.32
2018-12-27T07:09:44.454Z,99256.86
2018-12-27T07:12:00.142Z,99266.00
2018-12-27T07:14:07.518Z,99261.59
2018-12-27T07:16:15.113Z,99249.75
2018-12-27T07:18:22.235Z,99255.31
2018-12-27T07:20:30.135Z,99254.95
2018-12-27T07:22:37.195Z,99241.49
2018-12-27T07:24:44.554Z,99246.10
2018-12-27T07:26:51.746Z,99233.53
2018-12-27T07:28:58.866Z,99232.88
2018-12-27T07:31:06.226Z,99232.90
2018-12-27T07:33:13.489Z,99233.72
2018-12-27T07:35:21.122Z,99233.48
2018-12-27T07:37:28.451Z,99233.94
2018-12-27T07:39:35.660Z,99246.11
2018-12-27T07:41:42.912Z,99233.72
2018-12-27T07:43:51.551Z,99220.20
2018-12-27T07:45:58.710Z,99225.91
2018-12-27T07:48:06.105Z,99220.93
2018-12-27T07:50:13.763Z,99225.17
2018-12-27T07:52:20.868Z,99224.03
2018-12-27T07:54:28.126Z,99211.53
2018-12-27T07:56:35.452Z,99212.00
2018-12-27T07:58:42.749Z,99197.50
2018-12-27T08:00:50.132Z,99191.78
2018-12-27T08:02:57.019Z,99192.77
2018-12-27T08:05:04.614Z,99181.09
2018-12-27T08:07:12.542Z,99178.31
2018-12-27T08:09:21.117Z,99181.44
2018-12-27T08:11:28.732Z,99169.28
2018-12-27T08:13:35.868Z,99152.55
2018-12-27T08:15:43.515Z,99140.91
2018-12-27T08:17:50.662Z,99133.82
2018-12-27T08:19:57.989Z,99127.69
2018-12-27T08:22:05.440Z,99119.48
2018-12-27T08:24:12.557Z,99113.95
2018-12-27T08:26:19.793Z,99104.00
2018-12-27T08:28:27.354Z,99103.33
2018-12-27T08:30:35.054Z,99098.25
2018-12-27T08:32:42.272Z,99104.28
2018-12-27T08:34:49.624Z,99099.91
2018-12-27T08:36:57.039Z,99106.63
2018-12-27T08:39:04.908Z,99097.78
2018-12-27T08:41:13.006Z,99091.53
2018-12-27T08:43:20.262Z,99087.36
2018-12-27T08:45:27.802Z,99077.67
2018-12-27T08:47:34.973Z,99065.66
2018-12-27T08:49:42.260Z,99073.25
2018-12-27T08:51:49.689Z,99070.23
2018-12-27T08:53:57.074Z,99057.13
2018-12-27T08:56:04.024Z,99058.97
2018-12-27T08:58:11.882Z,99059.38
2018-12-27T09:00:19.814Z,99058.45
2018-12-27T09:02:27.600Z,99057.70
2018-12-27T09:04:34.682Z,99062.18
2018-12-27T09:06:42.745Z,99062.08
2018-12-27T09:08:50.075Z,99056.13
2018-12-27T09:10:58.757Z,99051.69
2018-12-27T09:13:05.957Z,99047.20
2018-12-27T09:15:13.964Z,99039.39
2018-12-27T09:17:21.166Z,99049.70
2018-12-27T09:19:28.309Z,99042.38
2018-12-27T09:21:36.143Z,99040.55
2018-12-27T09:23:43.995Z,99031.58
2018-12-27T09:25:51.791Z,99015.70
2018-12-27T09:27:58.612Z,99009.67
2018-12-27T09:30:05.996Z,99003.55
2018-12-27T09:32:13.187Z,98999.38
2018-12-27T09:34:20.354Z,98998.95
2018-12-27T09:36:27.339Z,98982.84
2018-12-27T09:38:34.613Z,98992.53
2018-12-27T09:40:42.211Z,98981.84
2018-12-27T09:42:49.336Z,98969.14
2018-12-27T09:44:57.302Z,98961.88
2018-12-27T09:47:04.465Z,98949.92
2018-12-27T09:49:12.681Z,98929.51
2018-12-27T09:51:19.828Z,98924.70
2018-12-27T09:53:27.046Z,98911.55
2018-12-27T09:55:34.225Z,98903.05
2018-12-27T09:57:41.407Z,98900.23
2018-12-27T09:59:48.687Z,98901.61
2018-12-27T10:01:55.766Z,98884.75
2018-12-27T10:04:03.585Z,98878.14
2018-12-27T10:06:10.916Z,98878.26
2018-12-27T10:08:17.955Z,98870.38
2018-12-27T10:10:25.108Z,98870.38
2018-12-27T10:12:33.118Z,98872.77
2018-12-27T10:14:40.321Z,98858.66
2018-12-27T10:16:48.337Z,98870.42
2018-12-27T10:18:55.621Z,98865.85
2018-12-27T10:21:02.839Z,98868.06
2018-12-27T10:23:10.576Z,98872.95
2018-12-27T10:25:17.684Z,98887.08
2018-12-27T10:27:25.484Z,98881.48
2018-12-27T10:29:32.670Z,98876.82
2018-12-27T10:31:40.013Z,98870.89
2018-12-27T10:33:47.123Z,98868.10
2018-12-27T10:35:54.240Z,98846.09
2018-12-27T10:38:01.517Z,98833.81
2018-12-27T10:40:11.631Z,98826.05
2018-12-27T10:42:18.852Z,98813.29
2018-12-27T10:44:26.092Z,98808.28
2018-12-27T10:46:33.249Z,98807.34
2018-12-27T10:48:40.642Z,98817.13
2018-12-27T10:50:47.893Z,98823.88
2018-12-27T10:52:54.930Z,98824.79
2018-12-27T10:55:02.379Z,98826.76
2018-12-27T10:57:10.788Z,98833.39
2018-12-27T10:59:17.929Z,98807.82
2018-12-27T11:01:25.237Z,98807.89
2018-12-27T11:03:32.284Z,98809.09
2018-12-27T11:05:39.542Z,98802.29
2018-12-27T11:07:46.927Z,98793.58
2018-12-27T11:09:54.309Z,98783.23
2018-12-27T11:12:01.827Z,98772.02
2018-12-27T11:14:08.884Z,98756.06
2018-12-27T11:16:16.091Z,98744.70
2018-12-27T11:18:23.594Z,98731.33
2018-12-27T11:20:31.150Z,98736.02
2018-12-27T11:22:38.556Z,98732.39
2018-12-27T11:24:45.504Z,98725.17
2018-12-27T11:26:52.781Z,98710.68
2018-12-27T11:29:00.813Z,98701.58
2018-12-27T11:31:07.808Z,98690.27
2018-12-27T11:33:15.455Z,98694.11
2018-12-27T11:35:22.679Z,98709.90
2018-12-27T11:37:29.970Z,98702.55
2018-12-27T11:39:37.287Z,98702.16
2018-12-27T11:41:44.254Z,98708.67
2018-12-27T11:43:51.536Z,98710.33
2018-12-27T11:45:58.910Z,98710.73
2018-12-27T11:48:05.964Z,98709.16
2018-12-27T11:50:13.186Z,98707.73
2018-12-27T11:52:21.170Z,98701.80
2018-12-27T11:54:28.420Z,98685.59
2018-12-27T11:56:35.436Z,98676.95
2018-12-27T11:58:42.631Z,98678.08
2018-12-27T12:00:49.922Z,98667.16
2018-12-27T12:02:56.935Z,98662.56
2018-12-27T12:05:04.287Z,98651.61
2018-12-27T12:07:11.560Z,98649.63
2018-12-27T12:09:18.645Z,98650.16
2018-12-27T12:11:25.880Z,98650.27
2018-12-27T12:13:33.106Z,98657.45
2018-12-27T12:15:41.035Z,98653.77
2018-12-27T12:17:48.407Z,98652.53
2018-12-27T12:19:55.743Z,98641.22
2018-12-27T12:22:03.121Z,98637.36
2018-12-27T12:24:10.382Z,98630.14
2018-12-27T12:26:17.681Z,98631.99
2018-12-27T12:28:25.125Z,98636.53
2018-12-27T12:30:31.900Z,98634.09
2018-12-27T12:32:39.143Z,98640.25
2018-12-27T12:34:46.703Z,98629.92
2018-12-27T12:36:54.427Z,98632.32
2018-12-27T12:39:01.655Z,98626.44
2018-12-27T12:41:08.853Z,98612.73
2018-12-27T12:43:16.134Z,98628.39
2018-12-27T12:45:23.380Z,98632.66
2018-12-27T12:47:30.523Z,98634.11
2018-12-27T12:49:38.612Z,98632.32
2018-12-27T12:51:45.683Z,98638.80
2018-12-27T12:53:52.897Z,98654.66
2018-12-27T12:56:00.054Z,98657.34
2018-12-27T12:58:07.404Z,98652.04
2018-12-27T13:00:15.136Z,98652.94
2018-12-27T13:02:22.419Z,98649.70
2018-12-27T13:04:29.761Z,98653.40
2018-12-27T13:06:36.827Z,98650.75
2018-12-27T13:08:45.142Z,98644.90
2018-12-27T13:10:52.166Z,98641.94
2018-12-27T13:13:00.059Z,98649.23
2018-12-27T13:15:07.525Z,98648.56
2018-12-27T13:17:14.727Z,98650.33
2018-12-27T13:19:21.990Z,98651.60
2018-12-27T13:21:29.574Z,98658.67
2018-12-27T13:23:36.650Z,98655.20
2018-12-27T13:25:44.498Z,98648.72
2018-12-27T13:27:51.679Z,98647.27
2018-12-27T13:29:59.054Z,98641.41
2018-12-27T13:32:06.480Z,98649.55
2018-12-27T13:34:13.570Z,98645.59
2018-12-27T13:36:25.362Z,98631.45
2018-12-27T13:38:29.778Z,98637.28
2018-12-27T13:40:36.983Z,98633.83
2018-12-27T13:42:44.176Z,98630.05
2018-12-27T13:44:51.471Z,98631.36
2018-12-27T13:46:58.551Z,98629.81
2018-12-27T13:49:05.744Z,98627.40
2018-12-27T13:51:12.989Z,98626.55
2018-12-27T13:53:20.440Z,98615.01
2018-12-27T13:55:27.511Z,98615.41
2018-12-27T13:57:34.890Z,98610.42
2018-12-27T13:59:42.074Z,98618.47
2018-12-27T14:01:49.256Z,98624.13
2018-12-27T14:03:56.259Z,98608.48
2018-12-27T14:06:03.680Z,98613.44
2018-12-27T14:08:10.695Z,98609.84
2018-12-27T14:10:17.807Z,98592.62
2018-12-27T14:12:24.976Z,98587.73
2018-12-27T14:14:52.801Z,98585.70
2018-12-27T14:17:24.972Z,98577.94
2018-12-27T14:19:33.435Z,98574.98
2018-12-27T14:22:15.979Z,98575.37
2018-12-27T14:26:55.354Z,98563.54
2018-12-27T14:29:03.054Z,98559.34
2018-12-27T14:31:10.554Z,98548.38
2018-12-27T14:33:17.964Z,98547.16
2018-12-27T14:35:25.602Z,98540.36
2018-12-27T14:37:33.424Z,98535.66
2018-12-27T14:39:40.602Z,98540.84
2018-12-27T14:41:48.361Z,98528.70
2018-12-27T14:43:55.875Z,98529.39
2018-12-27T14:46:03.554Z,98527.79
2018-12-27T14:48:11.489Z,98519.73
2018-12-27T14:50:18.643Z,98518.27
2018-12-27T14:52:26.578Z,98500.98
2018-12-27T14:54:34.475Z,98501.23
2018-12-27T14:56:41.809Z,98496.63
2018-12-27T14:58:50.407Z,98490.09
2018-12-27T15:00:57.581Z,98498.58
2018-12-27T15:03:04.719Z,98484.30
2018-12-27T15:05:13.627Z,98476.99
2018-12-27T15:07:21.038Z,98470.98
2018-12-27T15:09:28.109Z,98445.27
2018-12-27T15:11:35.284Z,98436.47
2018-12-27T15:13:42.439Z,98431.16
2018-12-27T15:15:49.401Z,98420.05
2018-12-27T15:17:56.402Z,98415.11
2018-12-27T15:20:04.745Z,98405.39
2018-12-27T15:22:12.406Z,98406.30
2018-12-27T15:24:20.047Z,98398.98
2018-12-27T15:26:27.499Z,98389.50
2018-12-27T15:28:34.202Z,98376.48
2018-12-27T15:30:40.974Z,98363.83
2018-12-27T15:32:48.430Z,98362.06
2018-12-27T15:34:55.588Z,98346.48
2018-12-27T15:37:02.281Z,98340.14
